createdAt,value
2019-04-20T00:01:32.001Z,66.70
2019-04-20T00:03:37.625Z,67.30
2019-04-20T00:05:35.039Z,67.50
2019-04-20T00:07:37.661Z,67.50
2019-04-20T00:09:41.713Z,67.10
2019-04-20T00:11:53.560Z,67.30
2019-04-20T00:13:54.952Z,67.70
2019-04-20T00:15:49.247Z,67.50
2019-04-20T00:17:54.225Z,67.90
2019-04-20T00:19:57.265Z,67.70
2019-04-20T00:22:06.304Z,67.60
2019-04-20T00:24:13.201Z,67.60
2019-04-20T00:26:21.472Z,67.20
2019-04-20T00:28:34.281Z,66.80
2019-04-20T00:30:39.069Z,66.50
2019-04-20T00:32:37.666Z,66.50
2019-04-20T00:34:31.508Z,66.00
2019-04-20T00:36:29.040Z,66.10
2019-04-20T00:38:35.202Z,65.70
2019-04-20T00:40:35.572Z,66.00
2019-04-20T00:42:44.943Z,66.60
2019-04-20T00:44:43.839Z,67.30
2019-04-20T00:46:56.851Z,67.50
2019-04-20T00:48:53.989Z,67.90
2019-04-20T00:51:15.425Z,68.00
2019-04-20T00:53:08.102Z,68.30
2019-04-20T00:55:00.014Z,68.40
2019-04-20T00:57:13.484Z,68.50
2019-04-20T00:59:19.337Z,68.60
2019-04-20T01:01:31.138Z,68.60
2019-04-20T01:03:32.259Z,68.80
2019-04-20T01:05:53.636Z,69.40
2019-04-20T01:07:43.170Z,69.10
2019-04-20T01:09:58.341Z,68.80
2019-04-20T01:12:03.228Z,68.60
2019-04-20T01:14:07.821Z,68.40
2019-04-20T01:16:19.483Z,68.70
2019-04-20T01:18:10.750Z,68.50
2019-04-20T01:20:13.282Z,68.60
2019-04-20T01:22:18.447Z,68.30
2019-04-20T01:24:24.793Z,68.70
2019-04-20T01:26:22.720Z,69.20
2019-04-20T01:28:37.276Z,70.10
2019-04-20T01:30:35.270Z,69.30
2019-04-20T01:32:50.667Z,69.10
2019-04-20T01:34:50.214Z,69.20
2019-04-20T01:36:55.921Z,68.80
2019-04-20T01:38:56.760Z,68.20
2019-04-20T01:40:46.452Z,68.10
2019-04-20T01:42:48.996Z,68.40
2019-04-20T01:44:53.790Z,68.40
2019-04-20T01:46:58.783Z,68.40
2019-04-20T01:48:59.928Z,70.60
2019-04-20T01:51:07.156Z,71.10
2019-04-20T01:53:12.446Z,70.50
2019-04-20T01:55:40.110Z,70.90
2019-04-20T01:57:32.975Z,70.80
2019-04-20T01:59:46.998Z,71.60
2019-04-20T02:01:45.954Z,71.20
2019-04-20T02:04:03.233Z,71.10
2019-04-20T02:06:11.483Z,70.60
2019-04-20T02:08:15.617Z,71.00
2019-04-20T02:10:16.573Z,70.30
2019-04-20T02:12:23.653Z,71.30
2019-04-20T02:14:28.754Z,70.30
2019-04-20T02:16:34.955Z,70.60
2019-04-20T02:18:40.108Z,70.40
2019-04-20T02:20:53.035Z,70.70
2019-04-20T02:22:51.820Z,70.60
2019-04-20T02:24:38.820Z,70.40
2019-04-20T02:26:41.018Z,70.40
2019-04-20T02:29:09.543Z,70.20
2019-04-20T02:31:23.041Z,70.10
2019-04-20T02:33:34.436Z,70.30
2019-04-20T02:35:48.046Z,70.40
2019-04-20T02:38:01.329Z,71.30
2019-04-20T02:39:51.349Z,70.40
2019-04-20T02:41:51.017Z,70.00
2019-04-20T02:45:50.526Z,70.70
2019-04-20T02:48:06.505Z,71.20
2019-04-20T02:52:13.189Z,71.20
2019-04-20T02:56:12.364Z,71.20
2019-04-20T02:58:14.990Z,71.20
2019-04-20T03:00:12.281Z,71.20
2019-04-20T03:02:13.370Z,71.10
2019-04-20T03:03:58.108Z,71.40
2019-04-20T03:06:12.479Z,71.30
2019-04-20T03:08:20.271Z,71.30
2019-04-20T03:10:25.071Z,71.60
2019-04-20T03:12:33.461Z,71.70
2019-04-20T03:14:26.607Z,71.80
2019-04-20T03:16:31.843Z,71.70
2019-04-20T03:18:39.871Z,71.90
2019-04-20T03:20:45.988Z,71.90
2019-04-20T03:23:11.625Z,71.60
2019-04-20T03:24:53.974Z,71.90
2019-04-20T03:26:54.491Z,71.90
2019-04-20T03:29:01.548Z,72.00
2019-04-20T03:35:35.454Z,71.60
2019-04-20T03:37:27.992Z,72.10
2019-04-20T03:39:27.713Z,72.20
2019-04-20T03:41:21.881Z,72.20
2019-04-20T03:43:13.841Z,72.10
2019-04-20T03:45:19.565Z,72.20
2019-04-20T03:47:30.478Z,72.40
2019-04-20T03:49:52.928Z,72.90
2019-04-20T03:51:47.006Z,73.10
2019-04-20T03:54:03.749Z,73.30
2019-04-20T03:56:19.470Z,73.40
2019-04-20T03:58:19.716Z,73.50
2019-04-20T04:00:26.462Z,73.00
2019-04-20T04:02:47.888Z,72.90
2019-04-20T04:04:56.338Z,73.20
2019-04-20T04:06:47.862Z,73.20
2019-04-20T04:08:57.582Z,73.20
2019-04-20T04:11:06.651Z,73.10
2019-04-20T04:13:05.176Z,73.20
2019-04-20T04:15:07.027Z,73.30
2019-04-20T04:17:12.174Z,73.20
2019-04-20T04:19:20.985Z,73.10
2019-04-20T04:21:23.179Z,73.30
2019-04-20T04:23:38.175Z,73.30
2019-04-20T04:25:33.650Z,73.40
2019-04-20T04:27:40.486Z,73.30
2019-04-20T04:29:46.675Z,73.60
2019-04-20T04:31:55.376Z,74.00
2019-04-20T04:35:51.340Z,74.90
2019-04-20T04:38:02.771Z,75.00
2019-04-20T04:40:16.518Z,74.70
2019-04-20T04:42:20.311Z,75.60
2019-04-20T04:44:09.610Z,74.60
2019-04-20T04:45:55.516Z,75.00
2019-04-20T04:47:57.958Z,75.00
2019-04-20T04:50:08.936Z,75.40
2019-04-20T04:52:07.910Z,75.40
2019-04-20T04:54:16.768Z,75.40
2019-04-20T04:56:14.428Z,75.90
2019-04-20T04:58:12.814Z,76.40
2019-04-20T05:00:17.903Z,76.40
2019-04-20T05:02:18.142Z,76.90
2019-04-20T05:04:55.140Z,76.80
2019-04-20T05:06:37.411Z,76.40
2019-04-20T05:08:36.748Z,77.90
2019-04-20T05:10:33.057Z,77.10
2019-04-20T05:12:37.001Z,77.40
2019-04-20T05:14:47.083Z,77.60
2019-04-20T05:16:55.200Z,77.50
2019-04-20T05:19:11.903Z,77.50
2019-04-20T05:21:10.139Z,77.90
2019-04-20T05:23:20.536Z,78.50
2019-04-20T05:25:26.693Z,78.00
2019-04-20T05:27:36.384Z,78.50
2019-04-20T05:29:24.910Z,77.40
2019-04-20T05:31:23.480Z,82.00
2019-04-20T05:33:40.506Z,80.50
2019-04-20T05:35:52.530Z,80.90
2019-04-20T05:38:03.082Z,77.20
2019-04-20T05:40:00.349Z,77.80
2019-04-20T05:41:53.208Z,77.80
2019-04-20T05:43:59.817Z,77.10
2019-04-20T05:46:04.245Z,80.10
2019-04-20T05:48:08.976Z,78.60
2019-04-20T05:50:06.227Z,79.50
2019-04-20T05:52:31.017Z,81.00
2019-04-20T05:54:23.363Z,79.80
2019-04-20T05:56:33.069Z,77.80
2019-04-20T05:58:26.089Z,76.90
2019-04-20T06:00:34.514Z,76.60
2019-04-20T06:02:33.539Z,77.10
2019-04-20T06:04:54.367Z,75.90
2019-04-20T06:06:45.117Z,76.40
2019-04-20T06:08:59.519Z,75.90
2019-04-20T06:10:52.165Z,76.00
2019-04-20T06:12:51.714Z,75.30
2019-04-20T06:14:51.787Z,74.70
2019-04-20T06:17:04.189Z,74.00
2019-04-20T06:19:14.277Z,74.40
2019-04-20T06:21:20.122Z,73.30
2019-04-20T06:23:40.379Z,73.70
2019-04-20T06:25:54.849Z,73.30
2019-04-20T06:27:52.521Z,73.30
2019-04-20T06:29:53.829Z,74.10
2019-04-20T06:31:57.994Z,72.40
2019-04-20T06:36:27.591Z,71.00
2019-04-20T06:38:43.112Z,70.20
2019-04-20T06:40:50.213Z,69.60
2019-04-20T06:42:34.279Z,69.30
2019-04-20T06:44:41.336Z,68.10
2019-04-20T06:46:48.658Z,67.50
2019-04-20T06:48:45.887Z,67.40
2019-04-20T06:50:44.358Z,67.20
2019-04-20T06:53:18.791Z,66.40
2019-04-20T06:55:13.889Z,66.20
2019-04-20T06:57:18.358Z,66.00
2019-04-20T06:59:29.061Z,65.30
2019-04-20T07:01:25.111Z,61.90
2019-04-20T07:03:42.174Z,63.20
2019-04-20T07:05:32.593Z,61.70
2019-04-20T07:07:36.018Z,62.70
2019-04-20T07:09:57.130Z,62.10
2019-04-20T07:11:44.034Z,61.00
2019-04-20T07:13:35.907Z,59.80
2019-04-20T07:15:54.182Z,59.80
2019-04-20T07:18:26.503Z,59.60
2019-04-20T07:20:04.218Z,58.90
2019-04-20T07:22:32.201Z,59.70
2019-04-20T07:24:35.090Z,59.70
2019-04-20T07:26:41.790Z,59.10
2019-04-20T07:28:42.013Z,58.50
2019-04-20T07:30:35.392Z,58.20
2019-04-20T07:32:48.624Z,58.10
2019-04-20T07:34:40.181Z,58.00
2019-04-20T07:36:51.471Z,57.70
2019-04-20T07:38:54.242Z,58.40
2019-04-20T07:40:52.409Z,58.00
2019-04-20T07:42:55.160Z,57.40
2019-04-20T07:45:01.254Z,56.90
2019-04-20T07:47:08.888Z,56.80
2019-04-20T07:49:07.676Z,56.20
2019-04-20T07:50:59.206Z,56.50
2019-04-20T07:53:08.688Z,56.10
2019-04-20T07:57:16.971Z,57.30
2019-04-20T07:59:13.937Z,56.60
2019-04-20T08:01:53.031Z,57.90
2019-04-20T08:03:55.712Z,57.70
2019-04-20T08:05:55.194Z,56.90
2019-04-20T08:08:02.689Z,56.90
2019-04-20T08:09:57.358Z,57.30
2019-04-20T08:12:25.680Z,57.00
2019-04-20T08:14:24.135Z,57.20
2019-04-20T08:16:43.938Z,55.60
2019-04-20T08:18:32.233Z,55.90
2019-04-20T08:20:35.218Z,58.30
2019-04-20T08:22:46.660Z,57.10
2019-04-20T08:24:37.640Z,55.70
2019-04-20T08:26:30.948Z,55.30
2019-04-20T08:28:39.182Z,55.80
2019-04-20T08:30:51.673Z,55.80
2019-04-20T08:33:05.191Z,53.70
2019-04-20T08:35:13.954Z,54.00
2019-04-20T08:37:13.319Z,54.10
2019-04-20T08:39:30.586Z,53.20
2019-04-20T08:41:16.966Z,53.10
2019-04-20T08:43:37.953Z,53.30
2019-04-20T08:45:35.045Z,51.60
2019-04-20T08:47:53.323Z,51.10
2019-04-20T08:49:42.102Z,51.90
2019-04-20T08:51:53.660Z,52.20
2019-04-20T08:53:41.826Z,51.70
2019-04-20T08:55:41.321Z,51.80
2019-04-20T08:57:29.858Z,50.90
2019-04-20T08:59:35.057Z,51.40
2019-04-20T09:01:37.408Z,51.80
2019-04-20T09:03:51.530Z,50.60
2019-04-20T09:05:52.214Z,50.70
2019-04-20T09:07:56.533Z,50.30
2019-04-20T09:10:11.815Z,49.70
2019-04-20T09:12:08.976Z,48.80
2019-04-20T09:14:00.224Z,48.90
2019-04-20T09:16:00.487Z,48.50
2019-04-20T09:18:20.983Z,48.00
2019-04-20T09:20:16.486Z,48.00
2019-04-20T09:22:46.606Z,48.10
2019-04-20T09:25:04.195Z,47.60
2019-04-20T09:26:54.300Z,48.20
2019-04-20T09:29:00.539Z,48.00
2019-04-20T09:31:11.911Z,48.50
2019-04-20T09:33:35.978Z,46.30
2019-04-20T09:35:41.574Z,46.20
2019-04-20T09:37:47.289Z,46.70
2019-04-20T09:39:52.882Z,45.20
2019-04-20T09:42:00.753Z,47.30
2019-04-20T09:43:58.316Z,45.40
2019-04-20T09:46:04.621Z,45.80
2019-04-20T09:48:07.049Z,45.60
2019-04-20T09:50:22.578Z,45.60
2019-04-20T09:52:21.316Z,45.70
2019-04-20T09:54:32.630Z,45.30
2019-04-20T09:56:32.449Z,45.70
2019-04-20T09:58:31.081Z,44.90
2019-04-20T10:00:42.121Z,44.00
2019-04-20T10:02:34.457Z,44.10
2019-04-20T10:04:33.523Z,44.00
2019-04-20T10:06:36.489Z,44.30
2019-04-20T10:08:43.589Z,45.10
2019-04-20T10:10:45.382Z,44.70
2019-04-20T10:12:45.654Z,43.80
2019-04-20T10:14:46.982Z,43.40
2019-04-20T10:16:49.604Z,44.00
2019-04-20T10:18:53.590Z,42.70
2019-04-20T10:20:54.226Z,42.10
2019-04-20T10:22:56.339Z,41.20
2019-04-20T10:24:57.739Z,41.00
2019-04-20T10:27:00.703Z,41.10
2019-04-20T10:29:03.503Z,42.10
2019-04-20T10:31:04.902Z,40.50
2019-04-20T10:33:06.174Z,40.80
2019-04-20T10:35:08.951Z,40.40
2019-04-20T10:37:13.530Z,39.40
2019-04-20T10:39:16.802Z,39.50
2019-04-20T10:41:29.590Z,39.30
2019-04-20T10:43:21.904Z,39.90
2019-04-20T10:45:24.181Z,38.80
2019-04-20T10:47:25.623Z,38.30
2019-04-20T10:49:27.185Z,35.70
2019-04-20T10:51:29.521Z,36.90
2019-04-20T10:53:32.096Z,36.20
2019-04-20T10:55:33.641Z,34.50
2019-04-20T10:57:35.417Z,35.70
2019-04-20T10:59:37.258Z,36.10
2019-04-20T11:01:39.976Z,35.70
2019-04-20T11:03:42.638Z,33.50
2019-04-20T11:05:44.698Z,34.70
2019-04-20T11:07:46.346Z,35.20
2019-04-20T11:09:47.690Z,35.30
2019-04-20T11:11:50.473Z,36.20
2019-04-20T11:13:53.090Z,35.90
2019-04-20T11:15:54.665Z,37.30
2019-04-20T11:17:57.536Z,37.50
2019-04-20T11:19:59.212Z,35.40
2019-04-20T11:22:02.100Z,33.80
2019-04-20T11:24:04.599Z,32.30
2019-04-20T11:26:06.333Z,33.50
2019-04-20T11:28:08.200Z,36.30
2019-04-20T11:30:10.199Z,35.20
2019-04-20T11:32:14.063Z,36.80
2019-04-20T11:34:21.877Z,35.70
2019-04-20T11:36:19.068Z,34.40
2019-04-20T11:38:21.895Z,32.80
2019-04-20T11:40:23.474Z,34.20
2019-04-20T11:42:25.693Z,36.60
2019-04-20T11:44:31.128Z,33.00
2019-04-20T11:46:30.529Z,35.20
2019-04-20T11:48:32.018Z,34.10
2019-04-20T11:50:33.667Z,33.60
2019-04-20T11:52:38.787Z,35.50
2019-04-20T11:54:40.008Z,36.40
2019-04-20T11:56:45.205Z,35.60
2019-04-20T11:58:44.917Z,35.70
2019-04-20T12:00:56.250Z,35.00
2019-04-20T12:03:09.576Z,32.70
2019-04-20T12:05:17.659Z,34.60
2019-04-20T12:07:09.085Z,34.90
2019-04-20T12:09:10.787Z,33.60
2019-04-20T12:11:26.475Z,34.90
2019-04-20T12:13:16.440Z,33.20
2019-04-20T12:15:18.836Z,33.50
2019-04-20T12:17:20.069Z,33.50
2019-04-20T12:19:22.662Z,33.50
2019-04-20T12:21:24.351Z,32.80
2019-04-20T12:23:26.498Z,32.20
2019-04-20T12:25:28.502Z,31.90
2019-04-20T12:27:32.453Z,30.00
2019-04-20T12:29:34.049Z,30.20
2019-04-20T12:31:35.706Z,30.00
2019-04-20T12:33:37.139Z,29.80
2019-04-20T12:35:38.492Z,31.00
2019-04-20T12:37:40.923Z,30.10
2019-04-20T12:39:42.899Z,30.70
2019-04-20T12:41:50.438Z,30.00
2019-04-20T12:43:47.712Z,29.60
2019-04-20T12:45:49.675Z,30.50
2019-04-20T12:47:51.547Z,30.90
2019-04-20T12:49:53.766Z,30.50
2019-04-20T12:51:59.435Z,30.40
2019-04-20T12:53:58.433Z,29.80
2019-04-20T12:55:59.907Z,29.80
2019-04-20T12:58:01.084Z,28.60
2019-04-20T13:00:09.904Z,28.80
2019-04-20T13:02:11.851Z,28.70
2019-04-20T13:04:14.307Z,28.50
2019-04-20T13:06:16.264Z,29.50
2019-04-20T13:08:21.718Z,28.70
2019-04-20T13:10:21.445Z,29.00
2019-04-20T13:12:34.371Z,29.40
2019-04-20T13:14:46.482Z,28.60
2019-04-20T13:16:50.181Z,27.50
2019-04-20T13:18:57.139Z,27.70
2019-04-20T13:20:59.901Z,27.30
2019-04-20T13:23:03.652Z,27.90
2019-04-20T13:25:07.226Z,28.60
2019-04-20T13:27:09.025Z,27.90
2019-04-20T13:29:11.000Z,27.80
2019-04-20T13:31:13.598Z,28.00
2019-04-20T13:33:15.165Z,27.70
2019-04-20T13:35:16.479Z,27.20
2019-04-20T13:37:18.062Z,27.10
2019-04-20T13:39:19.896Z,26.80
2019-04-20T13:41:22.058Z,26.90
2019-04-20T13:43:23.867Z,27.90
2019-04-20T13:45:25.209Z,27.20
2019-04-20T13:47:28.186Z,27.10
2019-04-20T13:49:31.166Z,26.90
2019-04-20T13:51:32.863Z,26.70
2019-04-20T13:53:35.034Z,26.00
2019-04-20T13:55:36.796Z,25.60
2019-04-20T13:57:53.834Z,26.80
2019-04-20T13:59:58.159Z,26.30
2019-04-20T14:02:01.328Z,26.30
2019-04-20T14:04:20.923Z,26.50
2019-04-20T14:06:22.624Z,26.50
2019-04-20T14:08:25.294Z,25.50
2019-04-20T14:10:27.070Z,25.90
2019-04-20T14:12:35.346Z,25.20
2019-04-20T14:14:33.054Z,25.60
2019-04-20T14:16:34.812Z,26.40
2019-04-20T14:18:37.159Z,25.80
2019-04-20T14:20:40.085Z,26.00
2019-04-20T14:22:42.931Z,25.20
2019-04-20T14:24:45.175Z,25.70
2019-04-20T14:26:48.809Z,25.40
2019-04-20T14:28:51.209Z,24.90
2019-04-20T14:30:54.045Z,24.40
2019-04-20T14:32:56.517Z,25.80
2019-04-20T14:34:58.793Z,25.30
2019-04-20T14:37:00.393Z,25.60
2019-04-20T14:39:02.395Z,25.60
2019-04-20T14:41:06.400Z,24.90
2019-04-20T14:43:08.905Z,25.00
2019-04-20T14:45:10.992Z,25.50
2019-04-20T14:47:12.179Z,25.00
2019-04-20T14:49:14.625Z,24.00
2019-04-20T14:51:17.111Z,24.60
2019-04-20T14:53:19.847Z,24.80
2019-04-20T14:55:22.451Z,23.10
2019-04-20T14:57:25.502Z,24.70
2019-04-20T14:59:31.667Z,25.80
2019-04-20T15:01:44.902Z,25.30
2019-04-20T15:03:52.049Z,24.00
2019-04-20T15:05:51.287Z,24.50
2019-04-20T15:07:52.738Z,24.30
2019-04-20T15:09:55.100Z,25.20
2019-04-20T15:11:56.954Z,24.20
2019-04-20T15:13:58.609Z,24.40
2019-04-20T15:15:59.761Z,24.20
2019-04-20T15:18:05.894Z,23.70
2019-04-20T15:20:09.769Z,24.40
2019-04-20T15:22:29.618Z,23.20
2019-04-20T15:24:31.530Z,25.30
2019-04-20T15:26:34.147Z,25.40
2019-04-20T15:28:36.597Z,25.30
2019-04-20T15:30:38.361Z,25.10
2019-04-20T15:32:40.918Z,25.30
2019-04-20T15:34:42.686Z,25.50
2019-04-20T15:36:44.373Z,24.90
2019-04-20T15:38:45.643Z,26.20
2019-04-20T15:40:46.991Z,26.10
2019-04-20T15:42:58.136Z,25.90
2019-04-20T15:44:51.530Z,25.70
2019-04-20T15:46:53.144Z,25.40
2019-04-20T15:48:55.786Z,24.90
2019-04-20T15:50:58.216Z,24.90
2019-04-20T15:53:00.782Z,24.80
2019-04-20T15:55:16.909Z,25.30
2019-04-20T15:57:14.542Z,25.40
2019-04-20T15:59:12.646Z,23.90
2019-04-20T16:01:14.643Z,25.70
2019-04-20T16:03:27.557Z,25.70
2019-04-20T16:05:43.022Z,24.40
2019-04-20T16:07:50.318Z,25.10
2019-04-20T16:09:48.496Z,25.40
2019-04-20T16:11:51.003Z,25.50
2019-04-20T16:13:55.408Z,24.80
2019-04-20T16:15:56.154Z,25.20
2019-04-20T16:17:58.908Z,25.30
2019-04-20T16:20:07.933Z,25.20
2019-04-20T16:22:05.823Z,26.10
2019-04-20T16:24:10.758Z,25.90
2019-04-20T16:26:31.607Z,25.50
2019-04-20T16:28:32.981Z,25.40
2019-04-20T16:30:35.730Z,25.30
2019-04-20T16:32:38.562Z,24.20
2019-04-20T16:34:40.319Z,25.30
2019-04-20T16:36:41.694Z,25.90
2019-04-20T16:38:43.567Z,25.00
2019-04-20T16:40:46.180Z,26.10
2019-04-20T16:42:48.024Z,24.40
2019-04-20T16:44:49.588Z,25.30
2019-04-20T16:46:52.146Z,24.80
2019-04-20T16:48:54.966Z,25.80
2019-04-20T16:50:56.486Z,25.90
2019-04-20T16:52:59.040Z,24.70
2019-04-20T16:55:02.011Z,25.10
2019-04-20T16:57:04.712Z,24.00
2019-04-20T16:59:10.290Z,25.50
2019-04-20T17:01:10.056Z,24.40
2019-04-20T17:03:11.329Z,25.50
2019-04-20T17:05:13.533Z,25.80
2019-04-20T17:07:18.414Z,25.30
2019-04-20T17:09:20.014Z,26.00
2019-04-20T17:11:21.657Z,26.70
2019-04-20T17:13:35.075Z,27.60
2019-04-20T17:15:27.641Z,27.90
2019-04-20T17:17:29.534Z,29.00
2019-04-20T17:19:31.443Z,29.00
2019-04-20T17:21:34.208Z,27.60
2019-04-20T17:23:37.343Z,30.10
2019-04-20T17:25:39.862Z,29.70
2019-04-20T17:27:52.996Z,29.50
2019-04-20T17:30:05.285Z,31.90
2019-04-20T17:32:09.869Z,31.10
2019-04-20T17:34:34.006Z,32.50
2019-04-20T17:36:20.789Z,31.80
2019-04-20T17:38:18.448Z,32.50
2019-04-20T17:40:44.248Z,31.00
2019-04-20T17:42:37.469Z,33.00
2019-04-20T17:44:41.569Z,32.60
2019-04-20T17:46:43.851Z,31.80
2019-04-20T17:48:43.202Z,32.70
2019-04-20T17:51:01.398Z,33.80
2019-04-20T17:52:54.441Z,33.10
2019-04-20T17:54:45.212Z,31.90
2019-04-20T17:56:46.758Z,32.70
2019-04-20T17:58:48.286Z,33.70
2019-04-20T18:01:24.102Z,35.00
2019-04-20T18:03:54.069Z,36.00
2019-04-20T18:05:39.552Z,37.00
2019-04-20T18:07:56.337Z,36.30
2019-04-20T18:09:54.749Z,34.90
2019-04-20T18:11:38.080Z,35.20
2019-04-20T18:13:34.215Z,33.90
2019-04-20T18:15:59.275Z,34.70
2019-04-20T18:18:18.700Z,35.10
2019-04-20T18:20:12.990Z,36.20
2019-04-20T18:22:14.330Z,35.90
2019-04-20T18:24:38.718Z,35.30
2019-04-20T18:26:38.371Z,35.90
2019-04-20T18:28:46.504Z,36.00
2019-04-20T18:30:41.793Z,36.10
2019-04-20T18:32:37.818Z,36.10
2019-04-20T18:34:53.017Z,36.70
2019-04-20T18:36:51.591Z,37.20
2019-04-20T18:39:00.611Z,37.10
2019-04-20T18:41:02.663Z,36.60
2019-04-20T18:43:07.307Z,37.40
2019-04-20T18:45:25.665Z,36.50
2019-04-20T18:47:29.048Z,37.10
2019-04-20T18:49:27.253Z,37.40
2019-04-20T18:51:15.474Z,36.90
2019-04-20T18:53:26.817Z,35.50
2019-04-20T18:55:29.035Z,36.20
2019-04-20T18:57:26.071Z,36.60
2019-04-20T18:59:35.219Z,36.70
2019-04-20T19:01:34.503Z,36.80
2019-04-20T19:03:40.269Z,37.40
2019-04-20T19:05:37.849Z,37.90
2019-04-20T19:07:45.348Z,38.00
2019-04-20T19:09:42.975Z,38.00
2019-04-20T19:11:51.900Z,38.20
2019-04-20T19:14:12.929Z,38.50
2019-04-20T19:16:26.656Z,38.40
2019-04-20T19:18:50.778Z,38.80
2019-04-20T19:20:39.090Z,39.10
2019-04-20T19:22:41.994Z,39.20
2019-04-20T19:24:45.003Z,39.30
2019-04-20T19:26:51.541Z,39.30
2019-04-20T19:28:54.462Z,38.90
2019-04-20T19:31:06.768Z,39.90
2019-04-20T19:33:14.335Z,39.50
2019-04-20T19:35:10.205Z,40.00
2019-04-20T19:37:14.314Z,40.00
2019-04-20T19:39:21.343Z,40.80
2019-04-20T19:41:25.278Z,41.10
2019-04-20T19:43:22.649Z,41.20
2019-04-20T19:45:42.600Z,41.10
2019-04-20T19:47:42.931Z,41.60
2019-04-20T19:49:35.696Z,41.60
2019-04-20T19:51:46.801Z,41.70
2019-04-20T19:53:58.704Z,42.60
2019-04-20T19:55:47.802Z,42.50
2019-04-20T19:57:56.537Z,42.60
2019-04-20T19:59:48.377Z,42.70
2019-04-20T20:01:45.409Z,43.30
2019-04-20T20:03:50.627Z,43.80
2019-04-20T20:05:52.305Z,44.10
2019-04-20T20:08:03.770Z,43.90
2019-04-20T20:10:01.499Z,43.70
2019-04-20T20:12:04.908Z,44.20
2019-04-20T20:14:06.071Z,43.80
2019-04-20T20:16:15.981Z,43.50
2019-04-20T20:18:27.418Z,43.60
2019-04-20T20:20:35.974Z,43.70
2019-04-20T20:22:25.252Z,44.10
2019-04-20T20:24:19.972Z,44.20
2019-04-20T20:26:31.043Z,44.10
2019-04-20T20:28:33.633Z,44.20
2019-04-20T20:30:36.257Z,44.70
2019-04-20T20:32:47.937Z,44.80
2019-04-20T20:34:42.126Z,44.90
2019-04-20T20:36:48.041Z,44.90
2019-04-20T20:38:48.542Z,45.00
2019-04-20T20:41:01.536Z,45.20
2019-04-20T20:43:01.562Z,45.40
2019-04-20T20:45:02.890Z,45.30
2019-04-20T20:47:05.553Z,45.30
2019-04-20T20:49:26.657Z,47.50
2019-04-20T20:51:28.769Z,47.20
2019-04-20T20:53:14.213Z,47.60
2019-04-20T20:55:20.950Z,48.00
2019-04-20T20:57:19.993Z,48.50
2019-04-20T20:59:30.510Z,47.70
2019-04-20T21:01:25.386Z,48.30
2019-04-20T21:03:32.198Z,48.20
2019-04-20T21:05:29.394Z,48.20
2019-04-20T21:07:31.082Z,47.80
2019-04-20T21:09:33.445Z,47.90
2019-04-20T21:11:36.343Z,47.60
2019-04-20T21:13:42.390Z,47.50
2019-04-20T21:15:45.403Z,47.70
2019-04-20T21:18:08.479Z,47.70
2019-04-20T21:20:05.284Z,48.00
2019-04-20T21:22:01.748Z,47.90
2019-04-20T21:24:05.153Z,48.20
2019-04-20T21:26:20.299Z,48.00
2019-04-20T21:28:13.115Z,48.10
2019-04-20T21:30:18.627Z,48.40
2019-04-20T21:32:19.805Z,48.60
2019-04-20T21:34:22.282Z,48.60
2019-04-20T21:36:29.499Z,48.80
2019-04-20T21:38:31.432Z,48.80
2019-04-20T21:40:39.342Z,49.00
2019-04-20T21:42:45.503Z,49.40
2019-04-20T21:44:42.935Z,49.50
2019-04-20T21:46:48.800Z,50.10
2019-04-20T21:48:59.595Z,50.80
2019-04-20T21:51:02.497Z,50.80
2019-04-20T21:52:58.580Z,51.00
2019-04-20T21:54:56.194Z,51.40
2019-04-20T21:57:03.119Z,50.90
2019-04-20T21:59:04.208Z,52.30
2019-04-20T22:01:16.381Z,52.40
2019-04-20T22:03:11.069Z,52.40
2019-04-20T22:05:13.479Z,52.40
2019-04-20T22:07:16.404Z,52.30
2019-04-20T22:09:18.206Z,52.20
2019-04-20T22:11:21.911Z,52.00
2019-04-20T22:13:29.597Z,52.30
2019-04-20T22:15:33.244Z,52.90
2019-04-20T22:17:34.563Z,52.90
2019-04-20T22:19:44.031Z,52.40
2019-04-20T22:21:50.348Z,52.40
2019-04-20T22:23:57.208Z,53.00
2019-04-20T22:25:58.426Z,52.80
2019-04-20T22:27:48.392Z,52.60
2019-04-20T22:29:50.222Z,52.30
2019-04-20T22:31:57.417Z,51.70
2019-04-20T22:33:54.720Z,52.30
2019-04-20T22:36:01.121Z,52.50
2019-04-20T22:38:08.546Z,51.90
2019-04-20T22:40:06.802Z,51.10
2019-04-20T22:42:11.317Z,51.20
2019-04-20T22:44:15.172Z,52.80
2019-04-20T22:46:18.410Z,54.50
2019-04-20T22:48:20.647Z,54.60
2019-04-20T22:50:34.230Z,54.40
2019-04-20T22:52:42.435Z,53.60
2019-04-20T22:54:39.506Z,53.70
2019-04-20T22:56:43.721Z,53.40
2019-04-20T22:58:44.861Z,53.40
2019-04-20T23:00:45.236Z,53.50
2019-04-20T23:02:40.836Z,53.50
2019-04-20T23:04:42.686Z,53.60
2019-04-20T23:06:48.496Z,53.90
2019-04-20T23:08:56.435Z,54.00
2019-04-20T23:10:51.478Z,53.60
2019-04-20T23:12:56.193Z,53.80
2019-04-20T23:14:56.470Z,54.20
2019-04-20T23:16:57.956Z,54.50
2019-04-20T23:19:00.287Z,55.30
2019-04-20T23:21:07.973Z,55.50
2019-04-20T23:23:05.029Z,55.50
2019-04-20T23:25:07.119Z,55.60
2019-04-20T23:27:13.943Z,55.80
2019-04-20T23:29:11.694Z,55.80
2019-04-20T23:31:18.351Z,56.00
2019-04-20T23:33:16.400Z,57.20
2019-04-20T23:35:21.065Z,57.90
2019-04-20T23:37:28.263Z,58.20
2019-04-20T23:39:30.142Z,58.20
2019-04-20T23:41:28.549Z,58.20
2019-04-20T23:43:43.637Z,58.30
2019-04-20T23:46:08.332Z,58.50
2019-04-20T23:48:10.159Z,58.20
2019-04-20T23:50:36.952Z,57.90
2019-04-20T23:52:42.879Z,57.80
2019-04-20T23:54:27.398Z,57.70
2019-04-20T23:56:25.499Z,57.50
2019-04-20T23:58:30.913Z,57.80
